sensor_id;sensor_type;location;lat;lon;timestamp;pressure;altitude;pressure_sealevel;temperature;humidity
12486;BME280;6307;46.804;11.580;2023-01-27T00:00:33;-20905.72;;;1.80;42.01
12486;BME280;6307;46.804;11.580;2023-01-27T00:02:59;-20907.53;;;1.86;42.51
12486;BME280;6307;46.804;11.580;2023-01-27T00:05:25;-20910.09;;;1.94;42.23
12486;BME280;6307;46.804;11.580;2023-01-27T00:07:51;-20910.41;;;1.95;41.67
12486;BME280;6307;46.804;11.580;2023-01-27T00:10:19;-20912.81;;;2.03;41.36
12486;BME280;6307;46.804;11.580;2023-01-27T00:12:46;-20913.72;;;2.06;41.19
12486;BME280;6307;46.804;11.580;2023-01-27T00:15:33;-20917.03;;;2.17;40.83
12486;BME280;6307;46.804;11.580;2023-01-27T00:17:59;-20915.22;;;2.11;40.52
12486;BME280;6307;46.804;11.580;2023-01-27T00:20:26;-20914.78;;;2.10;40.80
12486;BME280;6307;46.804;11.580;2023-01-27T00:23:17;-20916.13;;;2.14;40.58
12486;BME280;6307;46.804;11.580;2023-01-27T00:26:07;-20920.97;;;2.30;39.75
12486;BME280;6307;46.804;11.580;2023-01-27T00:28:40;-20922.63;;;2.36;39.46
12486;BME280;6307;46.804;11.580;2023-01-27T00:31:09;-20922.31;;;2.35;39.00
12486;BME280;6307;46.804;11.580;2023-01-27T00:33:55;-20923.06;;;2.37;40.00
12486;BME280;6307;46.804;11.580;2023-01-27T00:36:29;-20923.66;;;2.39;39.23
12486;BME280;6307;46.804;11.580;2023-01-27T00:38:56;-20926.38;;;2.48;39.20
12486;BME280;6307;46.804;11.580;2023-01-27T00:41:22;-20931.50;;;2.65;38.21
12486;BME280;6307;46.804;11.580;2023-01-27T00:43:50;-20929.84;;;2.60;38.42
12486;BME280;6307;46.804;11.580;2023-01-27T00:46:18;-20936.50;;;2.82;37.31
12486;BME280;6307;46.804;11.580;2023-01-27T00:48:46;-20933.47;;;2.72;38.07
12486;BME280;6307;46.804;11.580;2023-01-27T00:51:13;-20933.78;;;2.73;38.00
12486;BME280;6307;46.804;11.580;2023-01-27T00:53:40;-20927.91;;;2.53;38.46
12486;BME280;6307;46.804;11.580;2023-01-27T00:56:07;-20934.06;;;2.74;37.85
12486;BME280;6307;46.804;11.580;2023-01-27T00:58:33;-20925.47;;;2.45;38.51
12486;BME280;6307;46.804;11.580;2023-01-27T01:01:03;-20927.13;;;2.51;38.32
12486;BME280;6307;46.804;11.580;2023-01-27T01:03:32;-20932.13;;;2.67;38.57
12486;BME280;6307;46.804;11.580;2023-01-27T01:06:05;-20931.66;;;2.66;38.27
12486;BME280;6307;46.804;11.580;2023-01-27T01:08:34;-20920.19;;;2.28;38.33
12486;BME280;6307;46.804;11.580;2023-01-27T01:11:02;-20931.22;;;2.64;38.38
12486;BME280;6307;46.804;11.580;2023-01-27T01:13:29;-20922.78;;;2.36;38.99
12486;BME280;6307;46.804;11.580;2023-01-27T01:15:56;-20921.25;;;2.31;38.75
12486;BME280;6307;46.804;11.580;2023-01-27T01:18:22;-20927.44;;;2.52;39.23
12486;BME280;6307;46.804;11.580;2023-01-27T01:20:49;-20916.44;;;2.15;39.25
12486;BME280;6307;46.804;11.580;2023-01-27T01:23:15;-20922.91;;;2.37;39.13
12486;BME280;6307;46.804;11.580;2023-01-27T01:25:42;-20912.06;;;2.01;39.02
12486;BME280;6307;46.804;11.580;2023-01-27T01:28:15;-20925.03;;;2.44;38.71
12486;BME280;6307;46.804;11.580;2023-01-27T01:30:41;-20930.16;;;2.61;39.03
12486;BME280;6307;46.804;11.580;2023-01-27T01:33:08;-20917.47;;;2.19;39.42
12486;BME280;6307;46.804;11.580;2023-01-27T01:35:36;-20916.13;;;2.14;39.46
12486;BME280;6307;46.804;11.580;2023-01-27T01:38:03;-20920.50;;;2.29;39.06
12486;BME280;6307;46.804;11.580;2023-01-27T01:40:29;-20921.84;;;2.33;39.23
12486;BME280;6307;46.804;11.580;2023-01-27T01:43:01;-20918.25;;;2.21;39.43
12486;BME280;6307;46.804;11.580;2023-01-27T01:51:11;-20919.00;;;2.24;39.82
12486;BME280;6307;46.804;11.580;2023-01-27T01:53:54;-20912.06;;;2.01;39.58
12486;BME280;6307;46.804;11.580;2023-01-27T01:56:33;-20923.06;;;2.37;39.50
12486;BME280;6307;46.804;11.580;2023-01-27T01:59:08;-20912.97;;;2.04;39.05
12486;BME280;6307;46.804;11.580;2023-01-27T02:01:40;-20917.19;;;2.18;38.92
12486;BME280;6307;46.804;11.580;2023-01-27T02:04:18;-20926.22;;;2.48;38.51
12486;BME280;6307;46.804;11.580;2023-01-27T02:07:02;-20924.13;;;2.41;39.39
12486;BME280;6307;46.804;11.580;2023-01-27T02:09:33;-20918.84;;;2.23;39.61
12486;BME280;6307;46.804;11.580;2023-01-27T02:12:01;-20916.13;;;2.14;39.94
12486;BME280;6307;46.804;11.580;2023-01-27T02:14:27;-20906.94;;;1.84;40.45
12486;BME280;6307;46.804;11.580;2023-01-27T02:16:53;-20907.06;;;1.84;40.58
12486;BME280;6307;46.804;11.580;2023-01-27T02:28:36;-20899.38;;;1.59;40.62
12486;BME280;6307;46.804;11.580;2023-01-27T02:31:02;-20901.19;;;1.65;40.61
12486;BME280;6307;46.804;11.580;2023-01-27T02:33:29;-20911.16;;;1.98;40.62
12486;BME280;6307;46.804;11.580;2023-01-27T02:38:36;-20898.63;;;1.56;41.26
12486;BME280;6307;46.804;11.580;2023-01-27T02:41:30;-20894.41;;;1.42;41.50
12486;BME280;6307;46.804;11.580;2023-01-27T02:44:01;-20896.97;;;1.51;41.28
12486;BME280;6307;46.804;11.580;2023-01-27T02:46:27;-20902.41;;;1.69;41.68
12486;BME280;6307;46.804;11.580;2023-01-27T02:48:54;-20890.78;;;1.30;41.66
12486;BME280;6307;46.804;11.580;2023-01-27T02:51:20;-20900.44;;;1.62;41.66
12486;BME280;6307;46.804;11.580;2023-01-27T02:53:46;-20890.47;;;1.29;41.48
12486;BME280;6307;46.804;11.580;2023-01-27T02:56:12;-20888.81;;;1.24;42.38
12486;BME280;6307;46.804;11.580;2023-01-27T02:58:38;-20886.84;;;1.17;42.11
12486;BME280;6307;46.804;11.580;2023-01-27T03:01:05;-20891.84;;;1.34;42.18
12486;BME280;6307;46.804;11.580;2023-01-27T03:03:31;-20888.38;;;1.22;41.59
12486;BME280;6307;46.804;11.580;2023-01-27T03:05:57;-20894.84;;;1.44;42.36
12486;BME280;6307;46.804;11.580;2023-01-27T03:08:23;-20890.63;;;1.30;42.14
12486;BME280;6307;46.804;11.580;2023-01-27T03:10:51;-20884.91;;;1.11;42.59
12486;BME280;6307;46.804;11.580;2023-01-27T03:13:22;-20883.38;;;1.06;43.17
12486;BME280;6307;46.804;11.580;2023-01-27T03:15:50;-20890.78;;;1.30;42.36
12486;BME280;6307;46.804;11.580;2023-01-27T03:18:35;-20886.25;;;1.15;42.61
12486;BME280;6307;46.804;11.580;2023-01-27T03:21:04;-20890.63;;;1.30;43.06
12486;BME280;6307;46.804;11.580;2023-01-27T03:23:32;-20887.16;;;1.18;42.98
12486;BME280;6307;46.804;11.580;2023-01-27T03:25:59;-20883.97;;;1.08;43.11
12486;BME280;6307;46.804;11.580;2023-01-27T03:28:29;-20889.13;;;1.25;42.97
12486;BME280;6307;46.804;11.580;2023-01-27T03:31:13;-20874.94;;;0.78;43.17
12486;BME280;6307;46.804;11.580;2023-01-27T03:33:46;-20879.59;;;0.93;43.55
12486;BME280;6307;46.804;11.580;2023-01-27T03:36:13;-20883.97;;;1.08;43.57
12486;BME280;6307;46.804;11.580;2023-01-27T03:38:57;-20882.63;;;1.03;43.81
12486;BME280;6307;46.804;11.580;2023-01-27T03:41:42;-20880.50;;;0.96;43.56
12486;BME280;6307;46.804;11.580;2023-01-27T03:44:27;-20886.09;;;1.15;43.35
12486;BME280;6307;46.804;11.580;2023-01-27T03:47:11;-20874.47;;;0.76;43.93
12486;BME280;6307;46.804;11.580;2023-01-27T03:49:37;-20870.09;;;0.62;43.64
12486;BME280;6307;46.804;11.580;2023-01-27T03:52:03;-20877.66;;;0.87;43.87
12486;BME280;6307;46.804;11.580;2023-01-27T03:54:29;-20881.72;;;1.00;43.26
12486;BME280;6307;46.804;11.580;2023-01-27T03:56:55;-20874.78;;;0.77;43.32
12486;BME280;6307;46.804;11.580;2023-01-27T03:59:21;-20875.84;;;0.81;42.74
12486;BME280;6307;46.804;11.580;2023-01-27T04:01:47;-20881.28;;;0.99;42.91
12486;BME280;6307;46.804;11.580;2023-01-27T04:04:14;-20874.94;;;0.78;43.25
12486;BME280;6307;46.804;11.580;2023-01-27T04:06:58;-20872.50;;;0.70;43.19
12486;BME280;6307;46.804;11.580;2023-01-27T04:09:30;-20880.06;;;0.95;43.76
12486;BME280;6307;46.804;11.580;2023-01-27T04:12:00;-20875.09;;;0.78;42.99
12486;BME280;6307;46.804;11.580;2023-01-27T04:17:12;-20877.19;;;0.85;43.27
12486;BME280;6307;46.804;11.580;2023-01-27T04:19:41;-20872.50;;;0.70;43.58
12486;BME280;6307;46.804;11.580;2023-01-27T04:22:09;-20869.34;;;0.59;43.55
12486;BME280;6307;46.804;11.580;2023-01-27T04:24:36;-20865.88;;;0.48;43.93
12486;BME280;6307;46.804;11.580;2023-01-27T04:27:05;-20878.09;;;0.88;43.82
12486;BME280;6307;46.804;11.580;2023-01-27T04:29:42;-20867.53;;;0.53;43.79
12486;BME280;6307;46.804;11.580;2023-01-27T04:32:10;-20868.72;;;0.57;44.02
12486;BME280;6307;46.804;11.580;2023-01-27T04:34:38;-20877.94;;;0.88;43.54
12486;BME280;6307;46.804;11.580;2023-01-27T04:37:06;-20878.41;;;0.89;44.14
12486;BME280;6307;46.804;11.580;2023-01-27T04:39:33;-20868.13;;;0.55;45.05
12486;BME280;6307;46.804;11.580;2023-01-27T04:42:00;-20868.00;;;0.55;44.54
12486;BME280;6307;46.804;11.580;2023-01-27T04:44:26;-20862.25;;;0.36;44.45
12486;BME280;6307;46.804;11.580;2023-01-27T04:46:52;-20869.66;;;0.60;43.95
12486;BME280;6307;46.804;11.580;2023-01-27T04:49:19;-20862.56;;;0.37;44.77
12486;BME280;6307;46.804;11.580;2023-01-27T04:51:46;-20866.78;;;0.51;44.24
12486;BME280;6307;46.804;11.580;2023-01-27T04:54:12;-20867.06;;;0.52;44.44
12486;BME280;6307;46.804;11.580;2023-01-27T04:56:40;-20868.88;;;0.58;44.50
12486;BME280;6307;46.804;11.580;2023-01-27T04:59:19;-20863.44;;;0.40;44.63
12486;BME280;6307;46.804;11.580;2023-01-27T05:01:45;-20857.25;;;0.19;44.76
12486;BME280;6307;46.804;11.580;2023-01-27T05:04:11;-20864.97;;;0.45;44.49
12486;BME280;6307;46.804;11.580;2023-01-27T05:06:37;-20863.75;;;0.41;44.86
12486;BME280;6307;46.804;11.580;2023-01-27T05:09:03;-20862.56;;;0.37;44.32
12486;BME280;6307;46.804;11.580;2023-01-27T05:11:29;-20865.56;;;0.47;44.78
12486;BME280;6307;46.804;11.580;2023-01-27T05:13:55;-20859.22;;;0.26;44.21
12486;BME280;6307;46.804;11.580;2023-01-27T05:16:23;-20862.84;;;0.38;44.49
12486;BME280;6307;46.804;11.580;2023-01-27T05:18:52;-20864.50;;;0.43;44.77
12486;BME280;6307;46.804;11.580;2023-01-27T05:21:20;-20862.41;;;0.36;45.06
12486;BME280;6307;46.804;11.580;2023-01-27T05:23:49;-20855.44;;;0.13;45.24
12486;BME280;6307;46.804;11.580;2023-01-27T05:26:22;-20858.47;;;0.23;45.00
12486;BME280;6307;46.804;11.580;2023-01-27T05:28:50;-20858.63;;;0.24;45.63
12486;BME280;6307;46.804;11.580;2023-01-27T05:31:20;-20856.06;;;0.15;45.36
12486;BME280;6307;46.804;11.580;2023-01-27T05:33:51;-20849.88;;;-0.05;45.45
12486;BME280;6307;46.804;11.580;2023-01-27T05:36:21;-20867.06;;;0.52;44.55
12486;BME280;6307;46.804;11.580;2023-01-27T05:38:48;-20857.25;;;0.19;45.16
12486;BME280;6307;46.804;11.580;2023-01-27T05:41:16;-20855.00;;;0.12;44.87
12486;BME280;6307;46.804;11.580;2023-01-27T05:43:44;-20863.44;;;0.40;44.77
12486;BME280;6307;46.804;11.580;2023-01-27T05:46:17;-20861.78;;;0.34;43.98
12486;BME280;6307;46.804;11.580;2023-01-27T05:48:47;-20858.63;;;0.24;44.60
12486;BME280;6307;46.804;11.580;2023-01-27T05:51:17;-20855.91;;;0.15;44.47
12486;BME280;6307;46.804;11.580;2023-01-27T05:53:45;-20855.59;;;0.14;44.99
12486;BME280;6307;46.804;11.580;2023-01-27T05:56:13;-20845.31;;;-0.20;45.08
12486;BME280;6307;46.804;11.580;2023-01-27T05:58:41;-20855.59;;;0.14;44.47
12486;BME280;6307;46.804;11.580;2023-01-27T06:01:12;-20850.16;;;-0.04;44.90
12486;BME280;6307;46.804;11.580;2023-01-27T06:03:40;-20848.66;;;-0.09;44.81
12486;BME280;6307;46.804;11.580;2023-01-27T06:06:07;-20845.78;;;-0.18;44.65
12486;BME280;6307;46.804;11.580;2023-01-27T06:08:35;-20854.25;;;0.09;44.71
12486;BME280;6307;46.804;11.580;2023-01-27T06:11:02;-20855.00;;;0.12;45.06
12486;BME280;6307;46.804;11.580;2023-01-27T06:13:29;-20851.22;;;-0.01;45.00
12486;BME280;6307;46.804;11.580;2023-01-27T06:15:55;-20851.97;;;0.02;44.94
12486;BME280;6307;46.804;11.580;2023-01-27T06:18:22;-20856.50;;;0.17;44.86
12486;BME280;6307;46.804;11.580;2023-01-27T06:20:49;-20846.84;;;-0.15;44.75
12486;BME280;6307;46.804;11.580;2023-01-27T06:23:16;-20859.53;;;0.27;44.49
12486;BME280;6307;46.804;11.580;2023-01-27T06:25:44;-20848.66;;;-0.09;44.76
12486;BME280;6307;46.804;11.580;2023-01-27T06:28:12;-20858.31;;;0.23;44.26
12486;BME280;6307;46.804;11.580;2023-01-27T06:30:39;-20868.13;;;0.55;43.43
12486;BME280;6307;46.804;11.580;2023-01-27T06:33:06;-20855.59;;;0.14;44.37
12486;BME280;6307;46.804;11.580;2023-01-27T06:35:34;-20863.00;;;0.38;44.38
12486;BME280;6307;46.804;11.580;2023-01-27T06:38:03;-20850.91;;;-0.02;44.29
12486;BME280;6307;46.804;11.580;2023-01-27T06:40:31;-20851.06;;;-0.01;44.52
12486;BME280;6307;46.804;11.580;2023-01-27T06:42:58;-20846.53;;;-0.16;44.54
12486;BME280;6307;46.804;11.580;2023-01-27T06:45:26;-20845.03;;;-0.21;44.48
12486;BME280;6307;46.804;11.580;2023-01-27T06:47:57;-20860.59;;;0.30;43.82
12486;BME280;6307;46.804;11.580;2023-01-27T06:50:26;-20860.44;;;0.30;43.71
12486;BME280;6307;46.804;11.580;2023-01-27T06:52:59;-20851.81;;;0.01;43.96
12486;BME280;6307;46.804;11.580;2023-01-27T06:55:27;-20861.78;;;0.34;43.80
12486;BME280;6307;46.804;11.580;2023-01-27T06:57:53;-20858.63;;;0.24;43.50
12486;BME280;6307;46.804;11.580;2023-01-27T07:00:20;-20857.41;;;0.20;44.17
12486;BME280;6307;46.804;11.580;2023-01-27T07:02:46;-20856.50;;;0.17;43.67
12486;BME280;6307;46.804;11.580;2023-01-27T07:05:13;-20855.75;;;0.14;43.72
12486;BME280;6307;46.804;11.580;2023-01-27T07:07:39;-20856.19;;;0.16;44.10
12486;BME280;6307;46.804;11.580;2023-01-27T07:10:06;-20856.06;;;0.15;44.27
12486;BME280;6307;46.804;11.580;2023-01-27T07:12:33;-20854.84;;;0.11;44.76
12486;BME280;6307;46.804;11.580;2023-01-27T07:15:06;-20850.31;;;-0.04;44.94
12486;BME280;6307;46.804;11.580;2023-01-27T07:17:34;-20849.88;;;-0.05;44.92
12486;BME280;6307;46.804;11.580;2023-01-27T07:20:02;-20848.81;;;-0.08;45.11
12486;BME280;6307;46.804;11.580;2023-01-27T07:22:29;-20849.56;;;-0.06;45.45
12486;BME280;6307;46.804;11.580;2023-01-27T07:24:55;-20848.66;;;-0.09;46.19
12486;BME280;6307;46.804;11.580;2023-01-27T07:27:22;-20845.94;;;-0.18;45.97
12486;BME280;6307;46.804;11.580;2023-01-27T07:29:49;-20859.22;;;0.26;44.85
12486;BME280;6307;46.804;11.580;2023-01-27T07:32:16;-20856.66;;;0.17;45.25
12486;BME280;6307;46.804;11.580;2023-01-27T07:34:43;-20856.06;;;0.15;45.65
12486;BME280;6307;46.804;11.580;2023-01-27T07:37:09;-20844.41;;;-0.23;45.27
12486;BME280;6307;46.804;11.580;2023-01-27T07:39:36;-20855.16;;;0.12;45.03
12486;BME280;6307;46.804;11.580;2023-01-27T07:42:03;-20854.09;;;0.09;44.52
12486;BME280;6307;46.804;11.580;2023-01-27T07:44:30;-20868.28;;;0.56;43.93
12486;BME280;6307;46.804;11.580;2023-01-27T07:46:58;-20857.72;;;0.21;44.04
12486;BME280;6307;46.804;11.580;2023-01-27T07:49:24;-20854.09;;;0.09;44.71
12486;BME280;6307;46.804;11.580;2023-01-27T07:51:51;-20865.88;;;0.48;44.36
12486;BME280;6307;46.804;11.580;2023-01-27T07:54:18;-20865.72;;;0.47;44.44
12486;BME280;6307;46.804;11.580;2023-01-27T07:56:44;-20863.75;;;0.41;44.17
12486;BME280;6307;46.804;11.580;2023-01-27T07:59:10;-20859.69;;;0.27;44.76
12486;BME280;6307;46.804;11.580;2023-01-27T08:01:37;-20862.56;;;0.37;44.86
12486;BME280;6307;46.804;11.580;2023-01-27T08:04:05;-20857.56;;;0.20;44.91
12486;BME280;6307;46.804;11.580;2023-01-27T08:06:31;-20862.41;;;0.36;44.39
12486;BME280;6307;46.804;11.580;2023-01-27T08:08:57;-20863.31;;;0.39;44.49
12486;BME280;6307;46.804;11.580;2023-01-27T08:11:24;-20863.00;;;0.38;44.63
12486;BME280;6307;46.804;11.580;2023-01-27T08:13:51;-20854.84;;;0.11;44.48
12486;BME280;6307;46.804;11.580;2023-01-27T08:16:17;-20861.03;;;0.32;44.84
12486;BME280;6307;46.804;11.580;2023-01-27T08:18:44;-20860.59;;;0.30;44.40
12486;BME280;6307;46.804;11.580;2023-01-27T08:21:11;-20863.59;;;0.40;44.26
12486;BME280;6307;46.804;11.580;2023-01-27T08:23:37;-20866.63;;;0.50;44.42
12486;BME280;6307;46.804;11.580;2023-01-27T08:26:05;-20873.56;;;0.73;43.69
12486;BME280;6307;46.804;11.580;2023-01-27T08:28:33;-20870.41;;;0.63;42.99
12486;BME280;6307;46.804;11.580;2023-01-27T08:31:06;-20872.06;;;0.68;43.44
12486;BME280;6307;46.804;11.580;2023-01-27T08:33:38;-20878.41;;;0.89;42.91
12486;BME280;6307;46.804;11.580;2023-01-27T08:36:08;-20873.72;;;0.74;42.58
12486;BME280;6307;46.804;11.580;2023-01-27T08:38:39;-20874.16;;;0.75;42.86
12486;BME280;6307;46.804;11.580;2023-01-27T08:41:11;-20873.88;;;0.74;42.55
12486;BME280;6307;46.804;11.580;2023-01-27T08:43:39;-20884.59;;;1.10;42.66
12486;BME280;6307;46.804;11.580;2023-01-27T08:46:06;-20875.69;;;0.80;42.18
12486;BME280;6307;46.804;11.580;2023-01-27T08:48:34;-20874.94;;;0.78;42.38
12486;BME280;6307;46.804;11.580;2023-01-27T08:51:02;-20882.31;;;1.02;42.05
12486;BME280;6307;46.804;11.580;2023-01-27T08:53:29;-20888.66;;;1.23;42.03
12486;BME280;6307;46.804;11.580;2023-01-27T08:55:57;-20880.22;;;0.95;42.08
12486;BME280;6307;46.804;11.580;2023-01-27T08:58:26;-20881.28;;;0.99;42.02
12486;BME280;6307;46.804;11.580;2023-01-27T09:00:52;-20886.09;;;1.15;41.69
12486;BME280;6307;46.804;11.580;2023-01-27T09:03:18;-20890.78;;;1.30;41.29
12486;BME280;6307;46.804;11.580;2023-01-27T09:05:46;-20895.16;;;1.45;41.92
12486;BME280;6307;46.804;11.580;2023-01-27T09:08:12;-20888.22;;;1.22;41.22
12486;BME280;6307;46.804;11.580;2023-01-27T09:10:41;-20891.84;;;1.34;41.28
12486;BME280;6307;46.804;11.580;2023-01-27T09:13:07;-20891.84;;;1.34;41.08
12486;BME280;6307;46.804;11.580;2023-01-27T09:15:35;-20895.31;;;1.45;40.64
12486;BME280;6307;46.804;11.580;2023-01-27T09:18:03;-20892.91;;;1.37;39.89
12486;BME280;6307;46.804;11.580;2023-01-27T09:20:29;-20891.22;;;1.32;39.67
12486;BME280;6307;46.804;11.580;2023-01-27T09:22:57;-20905.56;;;1.79;39.53
12486;BME280;6307;46.804;11.580;2023-01-27T09:25:23;-20905.72;;;1.80;39.50
12486;BME280;6307;46.804;11.580;2023-01-27T09:27:53;-20909.03;;;1.91;39.73
12486;BME280;6307;46.804;11.580;2023-01-27T09:30:21;-20904.38;;;1.75;39.03
12486;BME280;6307;46.804;11.580;2023-01-27T09:32:47;-20910.84;;;1.97;38.66
12486;BME280;6307;46.804;11.580;2023-01-27T09:35:14;-20912.34;;;2.02;37.57
12486;BME280;6307;46.804;11.580;2023-01-27T09:37:53;-20919.59;;;2.26;36.97
12486;BME280;6307;46.804;11.580;2023-01-27T09:49:01;-20924.13;;;2.41;35.94
12486;BME280;6307;46.804;11.580;2023-01-27T09:52:03;-20935.59;;;2.79;35.68
12486;BME280;6307;46.804;11.580;2023-01-27T10:15:45;-20948.69;;;3.22;33.46
12486;BME280;6307;46.804;11.580;2023-01-27T10:21:22;-20954.72;;;3.42;33.23
12486;BME280;6307;46.804;11.580;2023-01-27T10:24:19;-20961.50;;;3.65;33.75
12486;BME280;6307;46.804;11.580;2023-01-27T10:29:47;-20968.28;;;3.87;35.67
12486;BME280;6307;46.804;11.580;2023-01-27T10:32:26;-20973.41;;;4.04;32.86
12486;BME280;6307;46.804;11.580;2023-01-27T10:40:34;-20989.38;;;4.57;31.55
12486;BME280;6307;46.804;11.580;2023-01-27T10:45:36;-20986.22;;;4.47;31.15
12486;BME280;6307;46.804;11.580;2023-01-27T10:48:27;-20982.44;;;4.34;30.97
12486;BME280;6307;46.804;11.580;2023-01-27T10:51:08;-20985.16;;;4.43;30.88
12486;BME280;6307;46.804;11.580;2023-01-27T10:53:52;-20997.38;;;4.84;30.42
12486;BME280;6307;46.804;11.580;2023-01-27T10:56:55;-21002.78;;;5.02;29.75
12486;BME280;6307;46.804;11.580;2023-01-27T10:59:44;-21000.38;;;4.94;29.47
12486;BME280;6307;46.804;11.580;2023-01-27T11:02:44;-20997.50;;;4.84;29.83
12486;BME280;6307;46.804;11.580;2023-01-27T11:05:30;-20995.25;;;4.77;29.83
12486;BME280;6307;46.804;11.580;2023-01-27T11:08:16;-20997.97;;;4.86;29.73
12486;BME280;6307;46.804;11.580;2023-01-27T11:10:47;-20996.63;;;4.81;30.56
12486;BME280;6307;46.804;11.580;2023-01-27T11:13:36;-20994.50;;;4.74;30.20
12486;BME280;6307;46.804;11.580;2023-01-27T11:16:04;-20998.25;;;4.87;29.96
12486;BME280;6307;46.804;11.580;2023-01-27T11:18:36;-21002.50;;;5.01;30.47
12486;BME280;6307;46.804;11.580;2023-01-27T11:21:04;-20997.50;;;4.84;30.36
12486;BME280;6307;46.804;11.580;2023-01-27T11:23:41;-20997.97;;;4.86;30.80
12486;BME280;6307;46.804;11.580;2023-01-27T11:29:08;-21008.22;;;5.20;30.70
12486;BME280;6307;46.804;11.580;2023-01-27T11:32:06;-21004.59;;;5.08;31.21
12486;BME280;6307;46.804;11.580;2023-01-27T11:35:08;-21007.31;;;5.17;31.08
12486;BME280;6307;46.804;11.580;2023-01-27T11:37:38;-21015.28;;;5.43;31.36
12486;BME280;6307;46.804;11.580;2023-01-27T11:42:42;-21011.38;;;5.30;31.21
12486;BME280;6307;46.804;11.580;2023-01-27T11:45:17;-21004.00;;;5.06;31.80
12486;BME280;6307;46.804;11.580;2023-01-27T11:47:47;-21012.88;;;5.35;31.17
12486;BME280;6307;46.804;11.580;2023-01-27T11:50:18;-21011.66;;;5.31;31.59
12486;BME280;6307;46.804;11.580;2023-01-27T11:53:12;-21009.41;;;5.24;31.04
12486;BME280;6307;46.804;11.580;2023-01-27T11:55:55;-21015.13;;;5.43;31.33
12486;BME280;6307;46.804;11.580;2023-01-27T12:01:44;-21013.63;;;5.38;31.87
12486;BME280;6307;46.804;11.580;2023-01-27T12:13:19;-21015.13;;;5.43;31.13
12486;BME280;6307;46.804;11.580;2023-01-27T12:15:54;-21020.41;;;5.60;31.20
12486;BME280;6307;46.804;11.580;2023-01-27T12:18:30;-21013.47;;;5.37;31.38
12486;BME280;6307;46.804;11.580;2023-01-27T12:21:02;-21018.59;;;5.54;31.39
12486;BME280;6307;46.804;11.580;2023-01-27T12:23:36;-21029.44;;;5.90;31.07
12486;BME280;6307;46.804;11.580;2023-01-27T12:26:11;-21018.91;;;5.55;31.59
12486;BME280;6307;46.804;11.580;2023-01-27T12:28:42;-21017.84;;;5.52;31.32
12486;BME280;6307;46.804;11.580;2023-01-27T12:31:24;-21011.66;;;5.31;31.16
12486;BME280;6307;46.804;11.580;2023-01-27T12:33:58;-21016.63;;;5.48;31.30
12486;BME280;6307;46.804;11.580;2023-01-27T12:36:42;-21023.84;;;5.72;31.24
12486;BME280;6307;46.804;11.580;2023-01-27T12:39:44;-21004.00;;;5.06;31.19
12486;BME280;6307;46.804;11.580;2023-01-27T12:42:44;-21015.13;;;5.43;31.15
12486;BME280;6307;46.804;11.580;2023-01-27T12:50:52;-21004.75;;;5.08;31.11
12486;BME280;6307;46.804;11.580;2023-01-27T12:53:29;-21008.50;;;5.21;30.75
12486;BME280;6307;46.804;11.580;2023-01-27T12:58:42;-21001.88;;;4.99;30.56
12486;BME280;6307;46.804;11.580;2023-01-27T13:01:35;-21004.75;;;5.08;30.41
12486;BME280;6307;46.804;11.580;2023-01-27T13:06:53;-20995.41;;;4.77;29.89
12486;BME280;6307;46.804;11.580;2023-01-27T13:09:37;-21012.13;;;5.33;29.61
12486;BME280;6307;46.804;11.580;2023-01-27T13:12:19;-20996.16;;;4.80;30.00
12486;BME280;6307;46.804;11.580;2023-01-27T13:14:53;-21003.84;;;5.05;29.87
12486;BME280;6307;46.804;11.580;2023-01-27T13:17:28;-21008.50;;;5.21;30.37
12486;BME280;6307;46.804;11.580;2023-01-27T13:23:33;-21007.44;;;5.17;29.20
12486;BME280;6307;46.804;11.580;2023-01-27T13:28:41;-20996.47;;;4.81;28.48
12486;BME280;6307;46.804;11.580;2023-01-27T13:31:16;-21003.09;;;5.03;29.02
12486;BME280;6307;46.804;11.580;2023-01-27T13:33:50;-20999.31;;;4.90;29.40
12486;BME280;6307;46.804;11.580;2023-01-27T13:44:40;-21002.19;;;5.00;28.45
12486;BME280;6307;46.804;11.580;2023-01-27T13:47:18;-20999.31;;;4.90;28.69
12486;BME280;6307;46.804;11.580;2023-01-27T13:49:54;-21002.50;;;5.01;28.50
12486;BME280;6307;46.804;11.580;2023-01-27T13:52:26;-21009.72;;;5.25;28.98
12486;BME280;6307;46.804;11.580;2023-01-27T13:54:53;-21002.50;;;5.01;29.02
12486;BME280;6307;46.804;11.580;2023-01-27T13:57:46;-21003.38;;;5.04;28.44
12486;BME280;6307;46.804;11.580;2023-01-27T14:00:34;-20997.97;;;4.86;28.96
12486;BME280;6307;46.804;11.580;2023-01-27T14:12:05;-20994.22;;;4.73;28.38
12486;BME280;6307;46.804;11.580;2023-01-27T14:18:43;-20995.09;;;4.76;29.14
12486;BME280;6307;46.804;11.580;2023-01-27T14:29:40;-20986.69;;;4.48;29.67
12486;BME280;6307;46.804;11.580;2023-01-27T14:35:19;-20978.84;;;4.22;30.05
12486;BME280;6307;46.804;11.580;2023-01-27T14:38:11;-20978.84;;;4.22;30.48
12486;BME280;6307;46.804;11.580;2023-01-27T14:41:02;-20982.44;;;4.34;30.04
12486;BME280;6307;46.804;11.580;2023-01-27T14:43:50;-20974.03;;;4.06;30.37
12486;BME280;6307;46.804;11.580;2023-01-27T14:46:55;-20980.94;;;4.29;30.48
12486;BME280;6307;46.804;11.580;2023-01-27T14:52:34;-20975.69;;;4.12;31.03
12486;BME280;6307;46.804;11.580;2023-01-27T14:55:21;-20974.31;;;4.07;30.79
12486;BME280;6307;46.804;11.580;2023-01-27T14:58:15;-20966.50;;;3.81;30.46
12486;BME280;6307;46.804;11.580;2023-01-27T15:01:38;-20963.63;;;3.72;30.77
12486;BME280;6307;46.804;11.580;2023-01-27T15:10:30;-20961.97;;;3.66;31.49
12486;BME280;6307;46.804;11.580;2023-01-27T15:26:52;-20958.94;;;3.56;32.21
12486;BME280;6307;46.804;11.580;2023-01-27T15:29:24;-20961.97;;;3.66;32.21
12486;BME280;6307;46.804;11.580;2023-01-27T15:32:12;-20950.34;;;3.28;32.44
12486;BME280;6307;46.804;11.580;2023-01-27T15:34:50;-20958.81;;;3.56;32.07
12486;BME280;6307;46.804;11.580;2023-01-27T15:37:21;-20953.97;;;3.40;31.91
12486;BME280;6307;46.804;11.580;2023-01-27T15:39:54;-20957.44;;;3.51;32.26
12486;BME280;6307;46.804;11.580;2023-01-27T15:42:51;-20952.31;;;3.34;31.78
12486;BME280;6307;46.804;11.580;2023-01-27T15:45:34;-20948.69;;;3.22;32.52
12486;BME280;6307;46.804;11.580;2023-01-27T15:48:05;-20946.75;;;3.16;32.50
12486;BME280;6307;46.804;11.580;2023-01-27T15:50:59;-20946.75;;;3.16;32.40
12486;BME280;6307;46.804;11.580;2023-01-27T15:53:37;-20948.56;;;3.22;32.35
12486;BME280;6307;46.804;11.580;2023-01-27T15:56:08;-20947.03;;;3.17;32.44
12486;BME280;6307;46.804;11.580;2023-01-27T15:58:38;-20948.56;;;3.22;31.91
12486;BME280;6307;46.804;11.580;2023-01-27T16:01:21;-20944.94;;;3.10;32.39